createdAt,value
2023-05-12T00:02:38.450Z,21.30
2023-05-12T00:05:29.573Z,23.27
2023-05-12T00:08:19.100Z,29.63
2023-05-12T00:11:09.770Z,31.23
2023-05-12T00:13:59.255Z,34.72
2023-05-12T00:16:51.816Z,43.35
2023-05-12T00:19:43.977Z,42.53
2023-05-12T00:22:33.220Z,39.05
2023-05-12T00:25:22.578Z,36.92
2023-05-12T00:28:13.135Z,33.10
2023-05-12T00:31:04.848Z,33.08
2023-05-12T00:33:54.171Z,31.83
2023-05-12T00:36:43.394Z,26.15
2023-05-12T00:39:32.753Z,27.45
2023-05-12T00:42:22.214Z,25.38
2023-05-12T00:45:13.931Z,22.85
2023-05-12T00:48:03.583Z,26.23
2023-05-12T00:50:53.057Z,21.90
2023-05-12T00:53:49.677Z,25.25
2023-05-12T00:56:40.432Z,24.15
2023-05-12T00:59:30.882Z,24.00
2023-05-12T01:02:22.180Z,24.55
2023-05-12T01:05:13.473Z,23.92
2023-05-12T01:08:04.564Z,22.10
2023-05-12T01:10:54.280Z,20.35
2023-05-12T01:13:43.670Z,21.67
2023-05-12T01:16:40.750Z,22.08
2023-05-12T01:19:42.769Z,23.25
2023-05-12T01:22:34.147Z,21.35
2023-05-12T01:25:25.733Z,20.88
2023-05-12T01:28:18.106Z,21.50
2023-05-12T01:31:09.607Z,22.05
2023-05-12T01:34:00.955Z,23.50
2023-05-12T01:36:51.034Z,24.95
2023-05-12T01:39:40.387Z,24.48
2023-05-12T01:42:31.879Z,28.58
2023-05-12T01:45:22.997Z,27.60
2023-05-12T01:48:14.543Z,29.30
2023-05-12T01:51:08.551Z,25.25
2023-05-12T01:53:57.838Z,25.55
2023-05-12T01:56:49.596Z,22.70
2023-05-12T01:59:38.899Z,24.17
2023-05-12T02:02:31.809Z,30.75
2023-05-12T02:05:22.295Z,29.67
2023-05-12T02:08:12.576Z,29.60
2023-05-12T02:11:08.535Z,25.98
2023-05-12T02:13:58.691Z,26.48
2023-05-12T02:16:52.710Z,24.65
2023-05-12T02:19:44.893Z,21.48
2023-05-12T02:22:36.049Z,20.33
2023-05-12T02:25:25.443Z,21.73
2023-05-12T02:28:14.816Z,24.20
2023-05-12T02:31:04.280Z,20.50
2023-05-12T02:33:54.606Z,22.60
2023-05-12T02:36:46.433Z,26.05
2023-05-12T02:39:35.720Z,19.60
2023-05-12T02:42:24.995Z,20.40
2023-05-12T02:45:14.764Z,19.25
2023-05-12T02:48:04.257Z,19.35
2023-05-12T02:50:53.432Z,19.38
2023-05-12T02:53:44.232Z,23.65
2023-05-12T02:56:34.116Z,23.65
2023-05-12T02:59:23.660Z,24.00
2023-05-12T03:02:13.239Z,24.38
2023-05-12T03:05:02.613Z,22.60
2023-05-12T03:07:51.961Z,21.42
2023-05-12T03:10:44.105Z,19.42
2023-05-12T03:13:33.558Z,23.58
2023-05-12T03:16:23.015Z,24.50
2023-05-12T03:19:12.535Z,31.00
2023-05-12T03:22:02.089Z,41.58
2023-05-12T03:24:51.927Z,48.50
2023-05-12T03:27:42.784Z,45.83
2023-05-12T03:30:33.225Z,44.78
2023-05-12T03:33:22.628Z,42.50
2023-05-12T03:36:13.329Z,40.83
2023-05-12T03:39:03.212Z,40.58
2023-05-12T03:41:52.563Z,34.60
2023-05-12T03:44:43.898Z,37.33
2023-05-12T03:47:34.804Z,34.80
2023-05-12T03:50:24.255Z,38.15
2023-05-12T03:53:13.519Z,34.13
2023-05-12T03:56:06.641Z,34.00
2023-05-12T04:01:46.636Z,33.03
2023-05-12T04:04:36.872Z,35.38
2023-05-12T04:07:26.506Z,31.35
2023-05-12T04:10:15.869Z,29.55
2023-05-12T04:13:05.578Z,30.83
2023-05-12T04:15:57.930Z,32.05
2023-05-12T04:18:49.522Z,32.70
2023-05-12T04:21:38.945Z,34.75
2023-05-12T04:24:28.435Z,38.33
2023-05-12T04:27:17.913Z,37.58
2023-05-12T04:30:09.632Z,38.38
2023-05-12T04:33:01.724Z,31.15
2023-05-12T04:35:57.753Z,36.63
2023-05-12T04:38:47.743Z,36.78
2023-05-12T04:41:37.499Z,37.80
2023-05-12T04:44:26.860Z,41.13
2023-05-12T04:47:16.595Z,39.38
2023-05-12T04:50:06.873Z,41.03
2023-05-12T04:52:57.676Z,37.08
2023-05-12T04:55:47.224Z,28.83
2023-05-12T04:58:38.490Z,30.55
2023-05-12T05:01:28.825Z,30.30
2023-05-12T05:04:18.908Z,22.02
2023-05-12T05:07:09.198Z,27.13
2023-05-12T05:10:00.404Z,22.27
2023-05-12T05:12:50.841Z,22.67
2023-05-12T05:15:53.151Z,24.67
2023-05-12T05:18:49.510Z,22.17
2023-05-12T05:21:38.956Z,24.75
2023-05-12T05:24:28.241Z,25.88
2023-05-12T05:27:21.490Z,24.08
2023-05-12T05:30:12.060Z,23.52
2023-05-12T05:33:03.037Z,22.48
2023-05-12T05:35:52.598Z,23.75
2023-05-12T05:38:42.077Z,23.98
2023-05-12T05:41:31.804Z,22.40
2023-05-12T05:44:22.900Z,22.40
2023-05-12T05:47:12.631Z,23.52
2023-05-12T05:50:02.115Z,22.20
2023-05-12T05:52:54.767Z,21.88
2023-05-12T05:55:45.340Z,22.50
2023-05-12T05:58:34.898Z,17.92
2023-05-12T06:01:27.713Z,22.65
2023-05-12T06:04:17.157Z,23.60
2023-05-12T06:07:06.914Z,20.90
2023-05-12T06:09:56.475Z,22.63
2023-05-12T06:12:45.985Z,23.00
2023-05-12T06:15:35.884Z,22.40
2023-05-12T06:18:26.551Z,17.25
2023-05-12T06:21:15.977Z,18.13
2023-05-12T06:24:08.914Z,23.20
2023-05-12T06:26:58.526Z,21.05
2023-05-12T06:29:47.867Z,15.13
2023-05-12T06:32:37.387Z,13.90
2023-05-12T06:35:29.605Z,18.15
2023-05-12T06:38:18.811Z,18.35
2023-05-12T06:41:09.343Z,14.65
2023-05-12T06:44:00.392Z,19.08
2023-05-12T06:46:50.225Z,15.95
2023-05-12T06:49:39.591Z,19.73
2023-05-12T06:52:30.282Z,16.27
2023-05-12T06:55:20.846Z,13.45
2023-05-12T06:58:10.452Z,17.90
2023-05-12T07:00:59.642Z,15.57
2023-05-12T07:03:48.940Z,13.77
2023-05-12T07:06:38.156Z,14.57
2023-05-12T07:09:28.868Z,18.50
2023-05-12T07:12:18.172Z,19.63
2023-05-12T07:15:09.762Z,16.33
2023-05-12T07:17:58.957Z,20.27
2023-05-12T07:20:49.178Z,16.63
2023-05-12T07:23:39.198Z,17.23
2023-05-12T07:26:30.449Z,16.27
2023-05-12T07:29:19.788Z,16.35
2023-05-12T07:32:09.259Z,16.55
2023-05-12T07:34:58.624Z,16.23
2023-05-12T07:37:47.910Z,19.65
2023-05-12T07:40:37.197Z,18.52
2023-05-12T07:43:27.936Z,15.50
2023-05-12T07:46:17.227Z,15.02
2023-05-12T07:49:07.449Z,17.20
2023-05-12T07:51:57.174Z,19.70
2023-05-12T07:54:46.607Z,18.10
2023-05-12T07:57:35.844Z,15.98
2023-05-12T08:00:26.800Z,16.98
2023-05-12T08:03:16.468Z,17.10
2023-05-12T08:06:07.420Z,16.33
2023-05-12T08:08:58.477Z,13.88
2023-05-12T08:11:50.012Z,10.73
2023-05-12T08:14:40.795Z,12.57
2023-05-12T08:17:31.473Z,15.43
2023-05-12T08:20:20.877Z,13.90
2023-05-12T08:23:10.338Z,13.00
2023-05-12T08:25:59.555Z,12.60
2023-05-12T08:28:48.771Z,11.00
2023-05-12T08:31:40.127Z,13.80
2023-05-12T08:34:33.972Z,12.20
2023-05-12T08:37:23.379Z,13.85
2023-05-12T08:40:19.959Z,14.00
2023-05-12T08:43:14.752Z,16.73
2023-05-12T08:46:04.127Z,11.48
2023-05-12T08:48:55.214Z,19.83
2023-05-12T08:51:56.823Z,12.73
2023-05-12T08:54:55.404Z,12.48
2023-05-12T08:57:48.515Z,14.63
2023-05-12T09:00:39.975Z,15.95
2023-05-12T09:03:29.665Z,12.88
2023-05-12T09:06:19.652Z,12.30
2023-05-12T09:09:10.598Z,13.18
2023-05-12T09:12:02.942Z,13.35
2023-05-12T09:15:02.072Z,13.80
2023-05-12T09:17:51.373Z,13.82
2023-05-12T09:20:40.767Z,17.60
2023-05-12T09:23:29.950Z,16.17
2023-05-12T09:26:20.964Z,12.38
2023-05-12T09:29:12.075Z,12.77
2023-05-12T09:32:05.905Z,16.08
2023-05-12T09:34:55.181Z,13.32
2023-05-12T09:37:44.512Z,14.18
2023-05-12T09:40:33.898Z,11.63
2023-05-12T09:43:24.562Z,9.82
2023-05-12T09:46:14.690Z,10.25
2023-05-12T09:49:04.498Z,10.80
2023-05-12T09:51:54.713Z,11.23
2023-05-12T09:54:43.990Z,12.40
2023-05-12T09:57:34.188Z,15.32
2023-05-12T10:00:38.682Z,15.38
2023-05-12T10:03:36.309Z,11.40
2023-05-12T10:06:29.421Z,11.55
2023-05-12T10:12:11.884Z,9.23
2023-05-12T10:15:01.793Z,9.73
2023-05-12T10:17:54.096Z,11.38
2023-05-12T10:20:46.433Z,9.73
2023-05-12T10:23:38.316Z,9.95
2023-05-12T10:26:28.404Z,12.90
2023-05-12T10:29:18.323Z,11.10
2023-05-12T10:32:07.640Z,8.88
2023-05-12T10:35:09.223Z,18.35
2023-05-12T10:38:02.493Z,10.00
2023-05-12T10:40:55.922Z,11.93
2023-05-12T10:43:50.642Z,10.95
2023-05-12T10:46:40.049Z,8.88
2023-05-12T10:49:37.683Z,11.02
2023-05-12T10:52:28.576Z,10.90
2023-05-12T10:55:18.040Z,21.00
2023-05-12T10:58:12.970Z,8.32
2023-05-12T11:01:08.142Z,9.48
2023-05-12T11:04:10.617Z,8.90
2023-05-12T11:07:01.384Z,7.80
2023-05-12T11:09:57.526Z,5.72
2023-05-12T11:12:49.023Z,7.18
2023-05-12T11:15:38.787Z,10.25
2023-05-12T11:18:28.306Z,9.57
2023-05-12T11:21:17.525Z,14.65
2023-05-12T11:24:07.583Z,11.15
2023-05-12T11:26:58.431Z,10.25
2023-05-12T11:29:58.989Z,13.85
2023-05-12T11:32:48.676Z,12.85
2023-05-12T11:35:38.085Z,14.15
2023-05-12T11:38:28.437Z,11.15
2023-05-12T11:41:25.181Z,11.80
2023-05-12T11:44:18.799Z,12.50
2023-05-12T11:47:14.713Z,13.20
2023-05-12T11:50:06.430Z,10.85
2023-05-12T11:52:55.710Z,10.57
2023-05-12T11:55:52.410Z,12.23
2023-05-12T11:58:52.984Z,11.73
2023-05-12T12:01:48.044Z,12.15
2023-05-12T12:04:41.924Z,13.25
2023-05-12T12:07:32.683Z,9.82
2023-05-12T12:10:22.282Z,7.88
2023-05-12T12:13:12.197Z,7.93
2023-05-12T12:16:01.480Z,10.05
2023-05-12T12:18:52.447Z,7.70
2023-05-12T12:21:42.786Z,7.25
2023-05-12T12:24:32.043Z,9.98
2023-05-12T12:27:21.295Z,8.65
2023-05-12T12:30:12.133Z,9.57
2023-05-12T12:33:01.605Z,8.57
2023-05-12T12:35:52.630Z,9.40
2023-05-12T12:38:42.283Z,8.48
2023-05-12T12:41:32.851Z,9.07
2023-05-12T12:44:22.477Z,7.00
2023-05-12T12:47:11.939Z,6.13
2023-05-12T12:50:01.724Z,9.10
2023-05-12T12:52:52.734Z,9.23
2023-05-12T12:55:42.031Z,8.55
2023-05-12T12:58:31.380Z,7.35
2023-05-12T13:01:20.692Z,11.73
2023-05-12T13:04:09.986Z,11.32
2023-05-12T13:06:59.499Z,8.30
2023-05-12T13:09:50.354Z,6.00
2023-05-12T13:12:39.761Z,8.27
2023-05-12T13:15:29.567Z,7.35
2023-05-12T13:18:18.901Z,9.20
2023-05-12T13:21:08.348Z,12.32
2023-05-12T13:23:57.690Z,8.75
2023-05-12T13:26:48.330Z,6.93
2023-05-12T13:29:37.698Z,8.38
2023-05-12T13:32:27.076Z,7.07
2023-05-12T13:35:16.357Z,6.95
2023-05-12T13:38:05.669Z,9.65
2023-05-12T13:40:54.997Z,7.30
2023-05-12T13:43:45.781Z,10.18
2023-05-12T13:46:35.666Z,8.23
2023-05-12T13:49:25.009Z,9.40
2023-05-12T13:52:15.042Z,8.20
2023-05-12T13:55:04.512Z,6.00
2023-05-12T13:57:53.870Z,8.27
2023-05-12T14:00:45.097Z,9.40
2023-05-12T14:03:34.731Z,8.35
2023-05-12T14:06:24.078Z,11.25
2023-05-12T14:09:14.351Z,8.50
2023-05-12T14:12:04.462Z,5.70
2023-05-12T14:14:54.733Z,9.68
2023-05-12T14:17:48.944Z,9.20
2023-05-12T14:20:38.325Z,7.97
2023-05-12T14:23:27.820Z,11.73
2023-05-12T14:26:17.240Z,11.38
2023-05-12T14:29:08.694Z,10.57
2023-05-12T14:31:58.346Z,7.70
2023-05-12T14:34:49.047Z,8.00
2023-05-12T14:37:38.532Z,10.00
2023-05-12T14:40:28.093Z,9.32
2023-05-12T14:43:17.663Z,9.32
2023-05-12T14:46:08.731Z,9.52
2023-05-12T14:48:57.995Z,8.57
2023-05-12T14:51:49.627Z,8.18
2023-05-12T14:54:38.907Z,14.98
2023-05-12T14:57:28.326Z,9.30
2023-05-12T15:00:18.504Z,10.55
2023-05-12T15:03:07.998Z,8.13
2023-05-12T15:06:06.648Z,10.73
2023-05-12T15:08:58.242Z,11.38
2023-05-12T15:11:48.173Z,10.30
2023-05-12T15:14:37.793Z,10.20
2023-05-12T15:17:28.282Z,8.57
2023-05-12T15:20:17.747Z,11.27
2023-05-12T15:23:07.107Z,11.00
2023-05-12T15:25:59.391Z,9.63
2023-05-12T15:28:48.958Z,11.00
2023-05-12T15:31:38.719Z,11.75
2023-05-12T15:34:28.162Z,10.23
2023-05-12T15:37:17.590Z,8.50
2023-05-12T15:40:08.783Z,8.98
2023-05-12T15:42:59.439Z,12.85
2023-05-12T15:45:48.662Z,9.55
2023-05-12T15:48:37.944Z,8.95
2023-05-12T15:51:28.481Z,9.63
2023-05-12T15:54:18.535Z,8.63
2023-05-12T15:57:08.573Z,10.45
2023-05-12T16:00:02.554Z,8.82
2023-05-12T16:03:02.852Z,10.95
2023-05-12T16:05:52.480Z,8.52
2023-05-12T16:08:41.660Z,7.10
2023-05-12T16:11:31.024Z,9.00
2023-05-12T16:14:21.976Z,9.70
2023-05-12T16:17:12.720Z,6.88
2023-05-12T16:20:02.173Z,5.90
2023-05-12T16:22:53.443Z,8.13
2023-05-12T16:25:43.198Z,8.75
2023-05-12T16:28:34.581Z,8.50
2023-05-12T16:31:24.358Z,6.38
2023-05-12T16:34:15.004Z,5.47
2023-05-12T16:37:04.569Z,6.80
2023-05-12T16:39:53.793Z,9.75
2023-05-12T16:42:43.087Z,9.98
2023-05-12T16:45:33.061Z,10.80
2023-05-12T16:48:22.457Z,7.05
2023-05-12T16:51:13.104Z,14.88
2023-05-12T16:54:02.489Z,5.90
2023-05-12T16:56:51.893Z,9.27
2023-05-12T16:59:41.282Z,9.20
2023-05-12T17:02:30.910Z,8.93
2023-05-12T17:05:21.415Z,7.80
2023-05-12T17:08:12.570Z,9.45
2023-05-12T17:11:01.786Z,8.30
2023-05-12T17:13:51.218Z,6.03
2023-05-12T17:16:40.866Z,7.90
2023-05-12T17:19:30.411Z,8.40
2023-05-12T17:22:19.747Z,7.22
2023-05-12T17:25:11.984Z,5.40
2023-05-12T17:28:01.288Z,6.05
2023-05-12T17:30:50.548Z,7.55
2023-05-12T17:33:39.825Z,7.63
2023-05-12T17:36:29.078Z,8.20
2023-05-12T17:39:18.364Z,8.57
2023-05-12T17:42:09.506Z,8.57
2023-05-12T17:44:59.115Z,6.80
2023-05-12T17:47:50.481Z,8.85
2023-05-12T17:50:40.549Z,7.63
2023-05-12T17:53:29.941Z,9.50
2023-05-12T17:56:19.330Z,9.82
2023-05-12T17:59:10.113Z,7.00
2023-05-12T18:01:59.571Z,11.90
2023-05-12T18:04:49.332Z,8.65
2023-05-12T18:07:38.796Z,11.75
2023-05-12T18:10:28.917Z,7.93
2023-05-12T18:13:18.212Z,9.70
2023-05-12T18:16:25.037Z,7.20
2023-05-12T18:19:17.756Z,9.82
2023-05-12T18:22:07.403Z,12.57
2023-05-12T18:24:56.745Z,9.30
2023-05-12T18:27:46.497Z,9.40
2023-05-12T18:30:35.912Z,10.20
2023-05-12T18:33:26.887Z,8.45
2023-05-12T18:36:16.447Z,8.75
2023-05-12T18:39:06.874Z,10.90
2023-05-12T18:41:56.495Z,11.35
2023-05-12T18:44:45.807Z,11.13
2023-05-12T18:47:35.323Z,13.63
2023-05-12T18:50:26.163Z,11.63
2023-05-12T18:53:15.674Z,8.98
2023-05-12T18:56:05.516Z,10.27
2023-05-12T18:58:54.811Z,13.57
2023-05-12T19:01:44.479Z,15.45
2023-05-12T19:04:34.054Z,9.63
2023-05-12T19:07:25.068Z,11.77
2023-05-12T19:10:14.562Z,13.98
2023-05-12T19:13:04.044Z,12.95
2023-05-12T19:15:53.332Z,11.77
2023-05-12T19:18:42.685Z,13.90
2023-05-12T19:21:33.679Z,15.05
2023-05-12T19:24:27.303Z,12.55
2023-05-12T19:27:16.703Z,14.68
2023-05-12T19:30:07.361Z,13.82
2023-05-12T19:32:56.927Z,14.15
2023-05-12T19:35:46.408Z,16.98
2023-05-12T19:38:35.921Z,19.50
2023-05-12T19:41:27.653Z,36.35
2023-05-12T19:44:17.950Z,13.45
2023-05-12T19:47:08.774Z,14.52
2023-05-12T19:49:58.121Z,14.88
2023-05-12T19:52:47.576Z,14.38
2023-05-12T19:55:37.177Z,16.08
2023-05-12T19:58:27.885Z,19.13
2023-05-12T20:01:17.212Z,15.85
2023-05-12T20:04:06.685Z,16.00
2023-05-12T20:06:56.043Z,14.63
2023-05-12T20:09:45.986Z,14.15
2023-05-12T20:12:35.194Z,17.75
2023-05-12T20:15:26.006Z,16.23
2023-05-12T20:18:15.817Z,15.95
2023-05-12T20:21:05.245Z,16.45
2023-05-12T20:23:54.580Z,17.42
2023-05-12T20:26:44.017Z,19.80
2023-05-12T20:29:33.399Z,18.23
2023-05-12T20:32:24.186Z,16.45
2023-05-12T20:35:13.647Z,18.00
2023-05-12T20:38:03.471Z,19.98
2023-05-12T20:40:53.199Z,17.50
2023-05-12T20:43:42.542Z,20.23
2023-05-12T20:46:32.821Z,19.88
2023-05-12T20:49:24.790Z,20.75
2023-05-12T20:52:14.602Z,21.05
2023-05-12T20:55:11.153Z,22.92
2023-05-12T20:58:00.497Z,23.65
2023-05-12T21:00:49.731Z,25.63
2023-05-12T21:03:41.005Z,21.42
2023-05-12T21:06:32.993Z,25.02
2023-05-12T21:09:22.271Z,27.50
2023-05-12T21:12:12.034Z,21.35
2023-05-12T21:15:01.945Z,25.02
2023-05-12T21:17:51.552Z,21.67
2023-05-12T21:20:40.948Z,22.50
2023-05-12T21:23:31.603Z,23.08
2023-05-12T21:26:21.444Z,20.17
2023-05-12T21:29:11.000Z,20.75
2023-05-12T21:32:00.536Z,22.63
2023-05-12T21:34:50.313Z,22.83
2023-05-12T21:37:39.670Z,22.92
2023-05-12T21:40:30.728Z,23.48
2023-05-12T21:43:20.142Z,19.90
2023-05-12T21:46:09.582Z,23.05
2023-05-12T21:48:58.892Z,23.33
2023-05-12T21:51:48.160Z,19.83
2023-05-12T21:54:38.513Z,22.00
2023-05-12T21:57:29.319Z,21.52
2023-05-12T22:00:20.293Z,21.70
2023-05-12T22:03:12.137Z,22.67
2023-05-12T22:06:01.904Z,21.52
2023-05-12T22:08:53.450Z,23.38
2023-05-12T22:11:46.980Z,25.10
2023-05-12T22:14:39.107Z,18.05
2023-05-12T22:17:28.475Z,22.27
2023-05-12T22:20:19.256Z,21.65
2023-05-12T22:23:08.912Z,23.95
2023-05-12T22:25:58.192Z,21.67
2023-05-12T22:28:47.432Z,25.08
2023-05-12T22:31:38.103Z,21.65
2023-05-12T22:34:27.397Z,19.80
2023-05-12T22:37:17.088Z,18.38
2023-05-12T22:40:10.105Z,19.67
2023-05-12T22:45:52.549Z,17.42
2023-05-12T22:48:43.560Z,20.83
2023-05-12T22:51:33.274Z,17.00
2023-05-12T22:54:22.638Z,17.92
2023-05-12T22:57:12.377Z,21.85
2023-05-12T23:00:03.764Z,19.35
2023-05-12T23:02:53.329Z,17.90
2023-05-12T23:05:43.974Z,19.15
2023-05-12T23:08:33.200Z,21.13
2023-05-12T23:11:22.655Z,25.38
2023-05-12T23:14:12.760Z,20.55
2023-05-12T23:17:02.297Z,23.95
2023-05-12T23:19:52.286Z,24.45
2023-05-12T23:22:43.055Z,25.52
2023-05-12T23:25:32.312Z,26.98
2023-05-12T23:28:21.708Z,22.50
2023-05-12T23:31:11.067Z,26.10
2023-05-12T23:34:01.109Z,29.30
2023-05-12T23:36:50.417Z,23.58
2023-05-12T23:39:41.525Z,23.23
2023-05-12T23:42:30.744Z,24.63
2023-05-12T23:45:19.958Z,23.92
2023-05-12T23:48:09.309Z,26.20
2023-05-12T23:50:58.587Z,27.88
2023-05-12T23:53:48.176Z,27.30
2023-05-12T23:56:38.838Z,23.88
2023-05-12T23:59:28.209Z,26.00
